ACA568 CYVR-KSFO
Flight info
| Callsign | ACA568 |
|---|---|
| Flight time | N/A |
| Altitude | 35000 |
| Route | VIXOR DCT ELMAA Q1 ETCHY DCT MLBEC BDEGA4 |
| Aircraft | A320/M-SDE3FGHIRWY/LB1 |
Departure
| Time | 2026-05-06 03:23 |
|---|---|
| Airport | Vancouver International Airport (CYVR) |
Arrival
| Time | N/A |
|---|---|
| Airport | San Francisco International Airport (KSFO) |
| Time | Latitude | Longitude | Altitude | Speed | Heading |
|---|---|---|---|---|---|
| 2026-05-06 03:00 | 49.19297 | -123.18314 | 23 ft | 0 kts | 159° |
| 2026-05-06 03:12 | 49.19299 | -123.18315 | 23 ft | 1 kts | 159° |
| 2026-05-06 03:12 | 49.19315 | -123.18323 | 24 ft | 3 kts | 169° |
| 2026-05-06 03:12 | 49.19335 | -123.18326 | 25 ft | 3 kts | 191° |
| 2026-05-06 03:12 | 49.19352 | -123.18316 | 24 ft | 3 kts | 232° |
| 2026-05-06 03:13 | 49.19357 | -123.18305 | 26 ft | 0 kts | 248° |
| 2026-05-06 03:18 | 49.19342 | -123.18409 | 23 ft | 16 kts | 283° |
| 2026-05-06 03:18 | 49.19362 | -123.18556 | 24 ft | 12 kts | 325° |
| 2026-05-06 03:18 | 49.19401 | -123.18638 | 23 ft | 9 kts | 274° |
| 2026-05-06 03:18 | 49.19388 | -123.18767 | 23 ft | 16 kts | 259° |
| 2026-05-06 03:19 | 49.19376 | -123.18863 | 23 ft | 18 kts | 259° |
| 2026-05-06 03:19 | 49.19424 | -123.19005 | 24 ft | 15 kts | 326° |
| 2026-05-06 03:19 | 49.19501 | -123.19094 | 24 ft | 13 kts | 321° |
| 2026-05-06 03:19 | 49.19566 | -123.19174 | 23 ft | 11 kts | 323° |
| 2026-05-06 03:20 | 49.19700 | -123.19333 | 23 ft | 17 kts | 322° |
| 2026-05-06 03:20 | 49.19815 | -123.19469 | 25 ft | 24 kts | 321° |
| 2026-05-06 03:20 | 49.19949 | -123.19634 | 24 ft | 22 kts | 320° |
| 2026-05-06 03:21 | 49.19991 | -123.19803 | 23 ft | 12 kts | 279° |
| 2026-05-06 03:21 | 49.20002 | -123.19900 | 24 ft | 0 kts | 280° |
| 2026-05-06 03:21 | 49.20002 | -123.19901 | 25 ft | 1 kts | 280° |
| 2026-05-06 03:21 | 49.20010 | -123.19974 | 23 ft | 14 kts | 274° |
| 2026-05-06 03:22 | 49.19959 | -123.20059 | 23 ft | 11 kts | 152° |
| 2026-05-06 03:22 | 49.19943 | -123.20038 | 23 ft | 0 kts | 140° |
| 2026-05-06 03:22 | 49.19930 | -123.20022 | 22 ft | 20 kts | 141° |
| 2026-05-06 03:22 | 49.19620 | -123.19647 | 27 ft | 90 kts | 142° |
| 2026-05-06 03:23 | 49.18977 | -123.18877 | 28 ft | 142 kts | 142° |
| 2026-05-06 03:23 | 49.18164 | -123.17896 | 471 ft | 146 kts | 142° |
| 2026-05-06 03:23 | 49.17382 | -123.16943 | 1094 ft | 147 kts | 143° |
| 2026-05-06 03:23 | 49.16554 | -123.15962 | 1668 ft | 151 kts | 147° |
| 2026-05-06 03:24 | 49.15587 | -123.15270 | 1972 ft | 162 kts | 174° |
| 2026-05-06 03:24 | 49.14411 | -123.15542 | 2099 ft | 185 kts | 206° |
| 2026-05-06 03:24 | 49.13224 | -123.16543 | 2412 ft | 202 kts | 214° |
| 2026-05-06 03:24 | 49.12016 | -123.17768 | 2809 ft | 215 kts | 218° |
| 2026-05-06 03:25 | 49.10756 | -123.19072 | 3313 ft | 224 kts | 212° |
| 2026-05-06 03:25 | 49.09331 | -123.20289 | 3654 ft | 246 kts | 210° |
| 2026-05-06 03:25 | 49.07750 | -123.21551 | 4105 ft | 264 kts | 209° |
| 2026-05-06 03:25 | 49.06085 | -123.22836 | 4844 ft | 271 kts | 209° |
| 2026-05-06 03:26 | 49.04384 | -123.24135 | 5603 ft | 276 kts | 208° |
| 2026-05-06 03:26 | 49.02658 | -123.25457 | 6394 ft | 279 kts | 208° |
| 2026-05-06 03:26 | 49.00915 | -123.26795 | 7147 ft | 282 kts | 208° |
| 2026-05-06 03:26 | 48.99155 | -123.28152 | 7905 ft | 285 kts | 208° |
| 2026-05-06 03:27 | 48.97398 | -123.29508 | 8639 ft | 287 kts | 208° |
| 2026-05-06 03:27 | 48.95593 | -123.30901 | 9347 ft | 292 kts | 208° |
| 2026-05-06 03:27 | 48.93771 | -123.32297 | 10092 ft | 295 kts | 208° |
| 2026-05-06 03:27 | 48.91883 | -123.33737 | 10424 ft | 314 kts | 208° |
| 2026-05-06 03:28 | 48.89866 | -123.35270 | 10670 ft | 334 kts | 208° |
| 2026-05-06 03:28 | 48.87734 | -123.36892 | 11005 ft | 348 kts | 208° |
| 2026-05-06 03:28 | 48.85553 | -123.38549 | 11638 ft | 352 kts | 208° |
| 2026-05-06 03:28 | 48.83352 | -123.40234 | 12278 ft | 357 kts | 208° |
| 2026-05-06 03:29 | 48.81127 | -123.41959 | 12924 ft | 361 kts | 209° |
| 2026-05-06 03:29 | 48.78884 | -123.43699 | 13573 ft | 364 kts | 209° |
| 2026-05-06 03:29 | 48.76676 | -123.45402 | 14140 ft | 368 kts | 209° |
| 2026-05-06 03:29 | 48.74348 | -123.47047 | 14715 ft | 372 kts | 202° |
| 2026-05-06 03:30 | 48.71827 | -123.48058 | 15281 ft | 378 kts | 191° |
| 2026-05-06 03:30 | 48.69188 | -123.48298 | 15856 ft | 383 kts | 180° |
| 2026-05-06 03:30 | 48.66515 | -123.48156 | 16416 ft | 386 kts | 180° |
| 2026-05-06 03:30 | 48.63817 | -123.48013 | 16982 ft | 389 kts | 180° |
| 2026-05-06 03:31 | 48.61102 | -123.47872 | 17538 ft | 392 kts | 180° |
| 2026-05-06 03:31 | 48.58361 | -123.47734 | 18093 ft | 395 kts | 180° |
| 2026-05-06 03:31 | 48.55603 | -123.47598 | 18600 ft | 398 kts | 180° |
| 2026-05-06 03:31 | 48.52828 | -123.47466 | 19077 ft | 401 kts | 180° |
| 2026-05-06 03:32 | 48.50024 | -123.47339 | 19577 ft | 404 kts | 180° |
| 2026-05-06 03:32 | 48.47204 | -123.47210 | 20034 ft | 408 kts | 180° |
| 2026-05-06 03:32 | 48.44355 | -123.47077 | 20515 ft | 411 kts | 180° |
| 2026-05-06 03:32 | 48.41491 | -123.46937 | 20977 ft | 414 kts | 180° |
| 2026-05-06 03:33 | 48.38595 | -123.46793 | 21446 ft | 418 kts | 180° |
| 2026-05-06 03:33 | 48.35674 | -123.46646 | 21901 ft | 421 kts | 180° |
| 2026-05-06 03:33 | 48.32736 | -123.46501 | 22343 ft | 424 kts | 180° |
| 2026-05-06 03:33 | 48.29822 | -123.46361 | 22772 ft | 427 kts | 180° |
| 2026-05-06 03:34 | 48.26794 | -123.46217 | 23243 ft | 430 kts | 180° |
| 2026-05-06 03:34 | 48.23794 | -123.46076 | 23652 ft | 433 kts | 180° |
| 2026-05-06 03:34 | 48.20765 | -123.45937 | 23997 ft | 436 kts | 180° |
| 2026-05-06 03:34 | 48.17726 | -123.45794 | 24337 ft | 439 kts | 179° |
| 2026-05-06 03:35 | 48.14663 | -123.45645 | 24669 ft | 441 kts | 179° |
| 2026-05-06 03:35 | 48.11589 | -123.45496 | 24998 ft | 444 kts | 179° |
| 2026-05-06 03:35 | 48.08528 | -123.45352 | 25315 ft | 446 kts | 179° |
| 2026-05-06 03:35 | 48.05419 | -123.45205 | 25638 ft | 449 kts | 179° |
| 2026-05-06 03:36 | 48.02291 | -123.45056 | 25962 ft | 451 kts | 179° |
| 2026-05-06 03:36 | 47.99149 | -123.44911 | 26268 ft | 453 kts | 179° |
| 2026-05-06 03:36 | 47.95984 | -123.44763 | 26575 ft | 455 kts | 179° |
| 2026-05-06 03:36 | 47.92808 | -123.44611 | 26855 ft | 458 kts | 179° |
| 2026-05-06 03:37 | 47.89615 | -123.44456 | 27148 ft | 460 kts | 179° |
| 2026-05-06 03:37 | 47.86408 | -123.44301 | 27450 ft | 463 kts | 179° |
| 2026-05-06 03:37 | 47.83170 | -123.44144 | 27744 ft | 465 kts | 179° |
| 2026-05-06 03:37 | 47.79935 | -123.43988 | 28018 ft | 467 kts | 179° |
| 2026-05-06 03:38 | 47.76677 | -123.43835 | 28310 ft | 469 kts | 179° |
| 2026-05-06 03:38 | 47.73404 | -123.43681 | 28582 ft | 472 kts | 179° |
| 2026-05-06 03:38 | 47.70120 | -123.43532 | 28844 ft | 474 kts | 179° |
| 2026-05-06 03:38 | 47.66814 | -123.43380 | 29102 ft | 476 kts | 179° |
| 2026-05-06 03:39 | 47.63492 | -123.43221 | 29347 ft | 478 kts | 179° |
| 2026-05-06 03:39 | 47.60158 | -123.43062 | 29599 ft | 480 kts | 179° |
| 2026-05-06 03:39 | 47.56809 | -123.42906 | 29838 ft | 482 kts | 179° |
| 2026-05-06 03:39 | 47.53496 | -123.42751 | 30035 ft | 484 kts | 179° |
| 2026-05-06 03:40 | 47.50080 | -123.42589 | 30235 ft | 485 kts | 179° |
| 2026-05-06 03:40 | 47.46748 | -123.42432 | 30420 ft | 486 kts | 179° |
| 2026-05-06 03:40 | 47.43370 | -123.42273 | 30669 ft | 486 kts | 179° |
| 2026-05-06 03:40 | 47.39999 | -123.42117 | 30962 ft | 484 kts | 179° |
| 2026-05-06 03:41 | 47.36629 | -123.41963 | 31238 ft | 483 kts | 179° |
| 2026-05-06 03:41 | 47.33274 | -123.41810 | 31537 ft | 482 kts | 179° |
| 2026-05-06 03:41 | 47.29925 | -123.41654 | 31821 ft | 481 kts | 179° |
| 2026-05-06 03:41 | 47.26585 | -123.41495 | 32095 ft | 480 kts | 179° |
| 2026-05-06 03:42 | 47.23256 | -123.41340 | 32361 ft | 479 kts | 179° |
| 2026-05-06 03:42 | 47.19927 | -123.41187 | 32635 ft | 478 kts | 179° |
| 2026-05-06 03:42 | 47.16600 | -123.41030 | 32912 ft | 478 kts | 179° |
| 2026-05-06 03:42 | 47.13279 | -123.40876 | 33162 ft | 477 kts | 180° |
| 2026-05-06 03:43 | 47.09967 | -123.40748 | 33428 ft | 476 kts | 180° |
| 2026-05-06 03:43 | 47.06652 | -123.40645 | 33708 ft | 475 kts | 180° |
| 2026-05-06 03:43 | 47.03355 | -123.40556 | 33974 ft | 475 kts | 180° |
| 2026-05-06 03:43 | 47.00053 | -123.40466 | 34216 ft | 474 kts | 180° |
| 2026-05-06 03:44 | 46.96762 | -123.40366 | 34444 ft | 473 kts | 180° |
| 2026-05-06 03:44 | 46.93463 | -123.40258 | 34672 ft | 473 kts | 180° |
| 2026-05-06 03:44 | 46.90172 | -123.40147 | 34884 ft | 472 kts | 180° |
| 2026-05-06 03:44 | 46.86891 | -123.40040 | 35054 ft | 473 kts | 180° |
| 2026-05-06 03:45 | 46.80342 | -123.39833 | 35095 ft | 469 kts | 180° |
| 2026-05-06 03:45 | 46.73863 | -123.39628 | 35096 ft | 469 kts | 180° |
| 2026-05-06 03:46 | 46.67348 | -123.39424 | 35094 ft | 469 kts | 180° |
| 2026-05-06 03:46 | 46.60821 | -123.39216 | 35099 ft | 469 kts | 180° |
| 2026-05-06 03:47 | 46.54291 | -123.39017 | 35093 ft | 469 kts | 180° |
| 2026-05-06 03:47 | 46.47761 | -123.38820 | 35102 ft | 470 kts | 180° |
| 2026-05-06 03:48 | 46.41220 | -123.38609 | 35106 ft | 470 kts | 180° |
| 2026-05-06 03:48 | 46.34679 | -123.38403 | 35107 ft | 470 kts | 180° |
| 2026-05-06 03:49 | 46.28129 | -123.38198 | 35106 ft | 471 kts | 180° |
| 2026-05-06 03:49 | 46.21584 | -123.38008 | 35102 ft | 471 kts | 180° |
| 2026-05-06 03:50 | 46.15034 | -123.37808 | 35095 ft | 471 kts | 180° |
| 2026-05-06 03:50 | 46.08487 | -123.37598 | 35097 ft | 471 kts | 180° |
| 2026-05-06 03:51 | 46.01976 | -123.37400 | 35093 ft | 471 kts | 180° |
| 2026-05-06 03:51 | 45.95418 | -123.37204 | 35083 ft | 471 kts | 180° |
| 2026-05-06 03:52 | 45.88865 | -123.37007 | 35078 ft | 471 kts | 180° |
| 2026-05-06 03:52 | 45.82309 | -123.36805 | 35076 ft | 472 kts | 179° |
| 2026-05-06 03:53 | 45.75741 | -123.36600 | 35070 ft | 472 kts | 179° |
| 2026-05-06 03:53 | 45.69169 | -123.36398 | 35069 ft | 473 kts | 179° |
| 2026-05-06 03:54 | 45.62596 | -123.36206 | 35073 ft | 473 kts | 180° |
| 2026-05-06 03:54 | 45.57123 | -123.36050 | 35068 ft | 473 kts | 179° |
| 2026-05-06 03:55 | 45.50537 | -123.35855 | 35066 ft | 473 kts | 179° |
| 2026-05-06 03:55 | 45.43939 | -123.35654 | 35064 ft | 474 kts | 179° |
| 2026-05-06 03:56 | 45.37347 | -123.35453 | 35057 ft | 474 kts | 179° |
| 2026-05-06 03:56 | 45.30750 | -123.35254 | 35053 ft | 474 kts | 179° |
| 2026-05-06 03:57 | 45.24148 | -123.35057 | 35050 ft | 475 kts | 179° |
| 2026-05-06 03:57 | 45.17540 | -123.34860 | 35065 ft | 476 kts | 179° |
| 2026-05-06 03:58 | 45.10916 | -123.34664 | 35067 ft | 476 kts | 179° |
| 2026-05-06 03:58 | 45.04297 | -123.34467 | 35074 ft | 476 kts | 179° |
| 2026-05-06 03:59 | 44.97718 | -123.34273 | 35069 ft | 476 kts | 179° |
| 2026-05-06 03:59 | 44.91092 | -123.34083 | 35069 ft | 476 kts | 179° |
| 2026-05-06 04:00 | 44.84469 | -123.33898 | 35064 ft | 477 kts | 179° |
| 2026-05-06 04:00 | 44.77833 | -123.33707 | 35070 ft | 477 kts | 179° |
| 2026-05-06 04:01 | 44.71200 | -123.33504 | 35091 ft | 477 kts | 179° |
| 2026-05-06 04:01 | 44.64552 | -123.33308 | 35085 ft | 478 kts | 179° |
| 2026-05-06 04:02 | 44.57897 | -123.33120 | 35087 ft | 478 kts | 179° |
| 2026-05-06 04:02 | 44.51251 | -123.32915 | 35102 ft | 478 kts | 179° |
| 2026-05-06 04:03 | 44.45502 | -123.32724 | 35106 ft | 478 kts | 178° |
| 2026-05-06 04:10 | 44.43197 | -123.32679 | 34187 ft | 467 kts | 187° |